createdAt,value
2018-03-30T00:00:31.756Z,19.33
2018-03-30T00:03:00.584Z,20.58
2018-03-30T00:05:29.920Z,20.12
2018-03-30T00:07:58.734Z,20.52
2018-03-30T00:10:27.536Z,20.83
2018-03-30T00:12:56.348Z,18.62
2018-03-30T00:15:26.144Z,19.55
2018-03-30T00:17:54.948Z,19.20
2018-03-30T00:20:23.743Z,17.80
2018-03-30T00:22:52.531Z,18.58
2018-03-30T00:25:21.344Z,17.95
2018-03-30T00:27:50.156Z,16.87
2018-03-30T00:30:19.716Z,16.17
2018-03-30T00:32:48.507Z,15.90
2018-03-30T00:35:17.318Z,17.02
2018-03-30T00:37:47.024Z,15.68
2018-03-30T00:40:15.827Z,16.48
2018-03-30T00:42:44.630Z,16.27
2018-03-30T00:45:13.960Z,16.20
2018-03-30T00:47:42.887Z,14.57
2018-03-30T00:50:13.076Z,15.95
2018-03-30T00:52:41.872Z,15.43
2018-03-30T00:55:10.672Z,15.88
2018-03-30T00:57:39.486Z,15.98
2018-03-30T01:00:07.816Z,13.93
2018-03-30T01:02:37.139Z,15.73
2018-03-30T01:05:05.943Z,15.23
2018-03-30T01:07:34.753Z,14.77
2018-03-30T01:10:03.555Z,15.30
2018-03-30T01:12:32.346Z,14.50
2018-03-30T01:15:01.140Z,16.08
2018-03-30T01:17:29.949Z,17.80
2018-03-30T01:19:59.518Z,17.92
2018-03-30T01:22:28.312Z,18.60
2018-03-30T01:24:57.106Z,17.95
2018-03-30T01:27:25.916Z,16.05
2018-03-30T01:29:55.257Z,17.60
2018-03-30T01:32:24.072Z,17.60
2018-03-30T01:34:52.868Z,17.98
2018-03-30T01:37:21.674Z,16.75
2018-03-30T01:39:50.483Z,18.10
2018-03-30T01:42:20.037Z,18.17
2018-03-30T01:44:48.836Z,16.85
2018-03-30T01:47:17.631Z,17.35
2018-03-30T01:49:46.428Z,16.33
2018-03-30T01:52:15.228Z,17.87
2018-03-30T01:54:44.023Z,17.17
2018-03-30T01:57:12.813Z,17.90
2018-03-30T01:59:42.379Z,17.52
2018-03-30T02:02:11.170Z,16.92
2018-03-30T02:04:39.967Z,19.12
2018-03-30T02:07:08.775Z,15.73
2018-03-30T02:09:37.580Z,17.25
2018-03-30T02:12:07.153Z,17.98
2018-03-30T02:14:35.951Z,16.20
2018-03-30T02:17:04.410Z,17.05
2018-03-30T02:19:33.219Z,18.37
2018-03-30T02:22:02.016Z,18.08
2018-03-30T02:24:30.819Z,17.77
2018-03-30T02:26:59.635Z,16.92
2018-03-30T02:29:29.197Z,17.00
2018-03-30T02:31:57.982Z,16.27
2018-03-30T02:34:26.790Z,16.60
2018-03-30T02:36:55.588Z,16.70
2018-03-30T02:39:24.411Z,16.92
2018-03-30T02:41:53.921Z,14.80
2018-03-30T02:44:22.717Z,16.25
2018-03-30T02:46:51.519Z,14.87
2018-03-30T02:49:20.352Z,14.57
2018-03-30T02:51:49.185Z,14.35
2018-03-30T02:54:18.000Z,14.07
2018-03-30T02:56:46.804Z,15.90
2018-03-30T02:59:15.609Z,15.00
2018-03-30T03:01:44.440Z,12.68
2018-03-30T03:04:13.253Z,13.52
2018-03-30T03:06:42.073Z,13.20
2018-03-30T03:09:10.908Z,13.05
2018-03-30T03:11:39.712Z,13.32
2018-03-30T03:14:08.292Z,13.50
2018-03-30T03:16:37.086Z,13.18
2018-03-30T03:19:05.887Z,12.90
2018-03-30T03:21:35.308Z,11.90
2018-03-30T03:27:04.143Z,11.35
2018-03-30T03:29:32.952Z,12.15
2018-03-30T03:32:02.527Z,11.77
2018-03-30T03:34:31.324Z,11.77
2018-03-30T03:37:00.127Z,11.02
2018-03-30T03:39:29.714Z,12.30
2018-03-30T03:41:58.716Z,12.18
2018-03-30T03:44:27.515Z,11.15
2018-03-30T03:46:57.106Z,11.12
2018-03-30T03:49:25.908Z,11.85
2018-03-30T03:51:55.481Z,11.43
2018-03-30T03:54:24.287Z,11.20
2018-03-30T03:56:53.868Z,12.30
2018-03-30T03:59:23.207Z,12.02
2018-03-30T04:01:52.020Z,12.20
2018-03-30T04:04:21.591Z,11.38
2018-03-30T04:06:50.407Z,11.65
2018-03-30T04:09:19.980Z,11.80
2018-03-30T04:11:48.792Z,11.85
2018-03-30T04:14:17.593Z,11.90
2018-03-30T04:16:46.403Z,10.80
2018-03-30T04:19:15.224Z,11.45
2018-03-30T04:21:44.024Z,11.65
2018-03-30T04:24:12.599Z,10.38
2018-03-30T04:26:41.410Z,11.65
2018-03-30T04:29:09.882Z,11.70
2018-03-30T04:31:38.691Z,10.75
2018-03-30T04:34:07.506Z,12.10
2018-03-30T04:36:37.078Z,12.23
2018-03-30T04:39:05.990Z,11.75
2018-03-30T04:41:34.808Z,12.80
2018-03-30T04:44:03.614Z,12.00
2018-03-30T04:46:32.087Z,11.85
2018-03-30T04:49:00.879Z,11.93
2018-03-30T04:51:29.690Z,13.52
2018-03-30T04:53:58.503Z,12.32
2018-03-30T04:56:27.072Z,12.00
2018-03-30T04:58:55.882Z,11.75
2018-03-30T05:01:24.460Z,13.38
2018-03-30T05:03:53.880Z,13.20
2018-03-30T05:06:22.681Z,13.00
2018-03-30T05:08:52.254Z,12.52
2018-03-30T05:11:21.055Z,12.45
2018-03-30T05:13:49.871Z,11.10
2018-03-30T05:16:19.449Z,13.45
2018-03-30T05:18:48.265Z,13.35
2018-03-30T05:21:17.634Z,12.75
2018-03-30T05:23:46.447Z,12.65
2018-03-30T05:26:16.759Z,11.25
2018-03-30T05:28:45.564Z,12.55
2018-03-30T05:31:14.376Z,12.98
2018-03-30T05:33:43.939Z,14.00
2018-03-30T05:36:12.762Z,11.90
2018-03-30T05:38:41.563Z,13.25
2018-03-30T05:41:11.128Z,12.15
2018-03-30T05:43:39.931Z,11.60
2018-03-30T05:46:08.395Z,12.98
2018-03-30T05:48:36.971Z,13.77
2018-03-30T05:51:05.452Z,13.05
2018-03-30T05:53:34.313Z,13.18
2018-03-30T05:56:03.120Z,13.40
2018-03-30T05:58:31.928Z,12.85
2018-03-30T06:01:00.735Z,12.80
2018-03-30T06:03:29.546Z,12.13
2018-03-30T06:05:59.123Z,12.35
2018-03-30T06:08:27.929Z,13.02
2018-03-30T06:10:56.395Z,12.82
2018-03-30T06:13:25.272Z,13.43
2018-03-30T06:15:54.215Z,14.55
2018-03-30T06:18:23.466Z,13.30
2018-03-30T06:20:51.963Z,12.77
2018-03-30T06:23:20.767Z,13.75
2018-03-30T06:25:49.569Z,14.25
2018-03-30T06:28:18.382Z,14.50
2018-03-30T06:30:47.500Z,14.55
2018-03-30T06:33:16.297Z,13.25
2018-03-30T06:35:45.100Z,13.65
2018-03-30T06:38:13.962Z,13.00
2018-03-30T06:40:42.916Z,13.18
2018-03-30T06:43:11.715Z,14.75
2018-03-30T06:45:41.288Z,13.80
2018-03-30T06:48:10.083Z,13.77
2018-03-30T06:50:38.895Z,14.00
2018-03-30T06:53:07.704Z,14.95
2018-03-30T06:55:37.288Z,13.43
2018-03-30T06:58:06.099Z,13.82
2018-03-30T07:00:35.684Z,13.95
2018-03-30T07:03:04.491Z,13.32
2018-03-30T07:05:34.068Z,12.93
2018-03-30T07:08:02.886Z,13.93
2018-03-30T07:10:31.884Z,15.75
2018-03-30T07:13:01.451Z,15.05
2018-03-30T07:15:30.271Z,13.48
2018-03-30T07:17:59.118Z,14.73
2018-03-30T07:20:27.941Z,12.65
2018-03-30T07:22:56.527Z,14.13
2018-03-30T07:25:25.344Z,13.15
2018-03-30T07:27:54.247Z,12.45
2018-03-30T07:30:23.071Z,14.00
2018-03-30T07:32:53.535Z,14.52
2018-03-30T07:35:23.123Z,13.18
2018-03-30T07:37:51.941Z,13.20
2018-03-30T07:40:23.147Z,13.52
2018-03-30T07:42:52.205Z,13.90
2018-03-30T07:45:21.040Z,14.25
2018-03-30T07:47:49.847Z,15.15
2018-03-30T07:50:19.615Z,13.52
2018-03-30T07:52:48.406Z,13.38
2018-03-30T07:55:17.220Z,13.85
2018-03-30T07:57:46.032Z,14.18
2018-03-30T08:00:14.844Z,15.05
2018-03-30T08:02:44.408Z,13.75
2018-03-30T08:05:13.206Z,13.10
2018-03-30T08:07:42.011Z,13.10
2018-03-30T08:10:10.811Z,13.85
2018-03-30T08:12:40.237Z,13.30
2018-03-30T08:15:09.063Z,12.50
2018-03-30T08:17:37.859Z,13.27
2018-03-30T08:20:09.095Z,12.52
2018-03-30T08:22:37.583Z,13.55
2018-03-30T08:25:07.215Z,12.93
2018-03-30T08:27:36.020Z,14.20
2018-03-30T08:30:04.939Z,13.40
2018-03-30T08:32:34.458Z,13.43
2018-03-30T08:35:03.053Z,13.80
2018-03-30T08:37:31.865Z,12.77
2018-03-30T08:40:00.683Z,13.25
2018-03-30T08:42:30.252Z,14.43
2018-03-30T08:44:59.064Z,12.85
2018-03-30T08:47:28.509Z,12.93
2018-03-30T08:49:56.994Z,13.80
2018-03-30T08:52:25.568Z,13.85
2018-03-30T08:54:54.375Z,13.57
2018-03-30T08:57:23.192Z,13.40
2018-03-30T08:59:52.743Z,14.00
2018-03-30T09:02:22.615Z,12.95
2018-03-30T09:04:51.436Z,13.20
2018-03-30T09:07:20.756Z,12.70
2018-03-30T09:09:51.031Z,12.88
2018-03-30T09:12:19.839Z,11.90
2018-03-30T09:14:49.812Z,12.80
2018-03-30T09:17:18.871Z,10.73
2018-03-30T09:19:49.299Z,10.07
2018-03-30T09:22:17.947Z,8.95
2018-03-30T09:24:46.431Z,8.82
2018-03-30T09:27:15.984Z,9.43
2018-03-30T09:29:49.773Z,6.00
2018-03-30T09:32:20.248Z,5.22
2018-03-30T09:34:49.260Z,5.55
2018-03-30T09:37:18.054Z,5.50
2018-03-30T09:39:47.095Z,5.60
2018-03-30T09:42:17.297Z,7.05
2018-03-30T09:44:46.490Z,5.90
2018-03-30T09:47:16.196Z,6.60
2018-03-30T09:49:44.994Z,5.72
2018-03-30T09:52:15.216Z,6.15
2018-03-30T09:54:44.035Z,6.43
2018-03-30T09:57:13.603Z,6.30
2018-03-30T09:59:43.355Z,7.93
2018-03-30T10:02:12.696Z,6.72
2018-03-30T10:04:45.077Z,6.35
2018-03-30T10:07:13.884Z,7.25
2018-03-30T10:09:42.681Z,5.93
2018-03-30T10:12:11.520Z,6.65
2018-03-30T10:14:40.329Z,7.80
2018-03-30T10:17:09.148Z,7.68
2018-03-30T10:19:37.944Z,6.68
2018-03-30T10:22:06.747Z,6.85
2018-03-30T10:24:35.557Z,8.02
2018-03-30T10:27:04.788Z,8.43
2018-03-30T10:29:33.623Z,8.85
2018-03-30T10:32:02.467Z,8.23
2018-03-30T10:34:31.301Z,8.02
2018-03-30T10:37:00.909Z,10.15
2018-03-30T10:39:29.733Z,9.25
2018-03-30T10:41:58.554Z,11.38
2018-03-30T10:44:28.402Z,10.23
2018-03-30T10:46:57.225Z,10.23
2018-03-30T10:49:26.804Z,9.85
2018-03-30T10:51:56.583Z,10.95
2018-03-30T10:54:25.408Z,10.73
2018-03-30T10:56:54.241Z,10.77
2018-03-30T10:59:23.060Z,9.60
2018-03-30T11:01:51.892Z,10.40
2018-03-30T11:04:21.583Z,12.27
2018-03-30T11:06:51.184Z,11.65
2018-03-30T11:09:19.999Z,11.63
2018-03-30T11:12:06.279Z,11.60
2018-03-30T11:17:20.471Z,11.52
2018-03-30T11:22:34.702Z,11.98
2018-03-30T11:25:03.527Z,11.40
2018-03-30T11:27:33.098Z,13.27
2018-03-30T11:30:01.945Z,13.07
2018-03-30T11:32:30.795Z,13.07
2018-03-30T11:34:59.617Z,11.90
2018-03-30T11:37:29.189Z,11.80
2018-03-30T11:39:57.993Z,12.37
2018-03-30T11:42:26.813Z,11.77
2018-03-30T11:44:55.640Z,12.10
2018-03-30T11:47:24.462Z,13.68
2018-03-30T11:49:56.252Z,11.57
2018-03-30T11:52:25.067Z,12.63
2018-03-30T11:54:53.885Z,12.13
2018-03-30T11:57:24.927Z,12.00
2018-03-30T11:59:53.457Z,11.30
2018-03-30T12:02:22.022Z,10.65
2018-03-30T12:05:13.672Z,10.60
2018-03-30T12:07:42.514Z,10.27
2018-03-30T12:10:20.395Z,12.48
2018-03-30T12:12:49.217Z,11.52
2018-03-30T12:15:18.815Z,11.93
2018-03-30T12:18:12.844Z,11.00
2018-03-30T12:20:41.675Z,10.82
2018-03-30T12:23:10.916Z,12.13
2018-03-30T12:25:40.510Z,12.20
2018-03-30T12:28:09.342Z,10.32
2018-03-30T12:30:38.167Z,10.50
2018-03-30T12:33:15.117Z,9.00
2018-03-30T12:35:45.552Z,9.82
2018-03-30T12:44:45.063Z,9.73
2018-03-30T12:47:14.639Z,8.65
2018-03-30T12:49:43.460Z,9.55
2018-03-30T12:52:13.751Z,9.10
2018-03-30T12:54:42.571Z,15.07
2018-03-30T12:57:12.143Z,9.80
2018-03-30T12:59:40.932Z,8.45
2018-03-30T13:02:09.747Z,10.45
2018-03-30T13:04:38.560Z,9.23
2018-03-30T13:07:07.380Z,10.15
2018-03-30T13:09:36.966Z,10.20
2018-03-30T13:12:05.447Z,10.90
2018-03-30T13:14:34.238Z,9.57
2018-03-30T13:17:03.043Z,9.60
2018-03-30T13:19:31.855Z,9.52
2018-03-30T13:22:00.670Z,17.98
2018-03-30T13:24:29.472Z,9.68
2018-03-30T13:26:58.053Z,10.35
2018-03-30T13:29:26.856Z,9.23
2018-03-30T13:31:56.421Z,9.05
2018-03-30T13:34:25.235Z,8.80
2018-03-30T13:36:54.024Z,8.02
2018-03-30T13:39:22.814Z,8.50
2018-03-30T13:41:51.603Z,7.22
2018-03-30T13:44:20.410Z,8.45
2018-03-30T13:46:49.971Z,8.35
2018-03-30T13:49:18.771Z,8.02
2018-03-30T13:51:55.712Z,8.15
2018-03-30T13:54:24.771Z,7.90
2018-03-30T13:56:53.555Z,8.23
2018-03-30T13:59:23.216Z,7.97
2018-03-30T14:02:08.021Z,9.75
2018-03-30T14:04:39.990Z,7.70
2018-03-30T14:07:30.783Z,7.75
2018-03-30T14:10:04.361Z,7.90
2018-03-30T14:12:36.843Z,8.38
2018-03-30T14:15:05.830Z,7.37
2018-03-30T14:17:45.306Z,6.37
2018-03-30T14:20:29.461Z,6.70
2018-03-30T14:23:08.398Z,7.35
2018-03-30T14:25:40.964Z,6.85
2018-03-30T14:28:14.615Z,6.32
2018-03-30T14:30:44.279Z,5.80
2018-03-30T14:33:17.979Z,5.53
2018-03-30T14:36:07.564Z,5.95
2018-03-30T14:38:45.124Z,6.40
2018-03-30T14:41:13.252Z,5.12
2018-03-30T14:43:46.859Z,6.05
2018-03-30T14:49:39.842Z,5.22
2018-03-30T14:52:26.212Z,5.70
2018-03-30T14:54:58.867Z,5.82
2018-03-30T14:57:32.771Z,4.55
2018-03-30T15:00:20.443Z,4.37
2018-03-30T15:02:50.596Z,4.47
2018-03-30T15:05:34.660Z,4.60
2018-03-30T15:08:06.315Z,4.70
2018-03-30T15:10:54.792Z,5.03
2018-03-30T15:13:24.367Z,4.50
2018-03-30T15:15:55.064Z,4.95
2018-03-30T15:18:26.091Z,4.68
2018-03-30T15:21:08.787Z,5.60
2018-03-30T15:23:37.760Z,5.50
2018-03-30T15:26:05.883Z,4.40
2018-03-30T15:28:35.794Z,5.22
2018-03-30T15:31:10.384Z,5.47
2018-03-30T15:33:48.279Z,5.25
2018-03-30T15:36:19.039Z,5.62
2018-03-30T15:38:47.196Z,5.82
2018-03-30T15:41:15.338Z,6.53
2018-03-30T15:43:45.761Z,5.05
2018-03-30T15:46:30.082Z,5.78
2018-03-30T15:48:58.211Z,5.05
2018-03-30T15:54:24.186Z,6.20
2018-03-30T15:56:54.739Z,7.22
2018-03-30T15:59:23.452Z,6.80
2018-03-30T16:01:52.339Z,4.75
2018-03-30T16:04:21.664Z,5.50
2018-03-30T16:06:49.822Z,5.30
2018-03-30T16:09:21.526Z,7.50
2018-03-30T16:11:50.325Z,5.90
2018-03-30T16:14:19.345Z,6.07
2018-03-30T16:16:47.475Z,6.00
2018-03-30T16:19:15.110Z,6.95
2018-03-30T16:21:42.787Z,7.40
2018-03-30T16:24:10.433Z,7.00
2018-03-30T16:26:38.075Z,7.07
2018-03-30T16:29:06.481Z,6.60
2018-03-30T16:31:33.899Z,6.55
2018-03-30T16:34:01.552Z,6.65
2018-03-30T16:36:29.195Z,7.18
2018-03-30T16:38:56.953Z,6.57
2018-03-30T16:41:24.619Z,7.82
2018-03-30T16:43:52.830Z,6.97
2018-03-30T16:46:20.628Z,6.85
2018-03-30T16:48:49.034Z,6.57
2018-03-30T16:51:16.670Z,6.80
2018-03-30T16:53:44.327Z,6.87
2018-03-30T16:56:12.739Z,6.62
2018-03-30T16:58:40.372Z,6.95
2018-03-30T17:01:08.034Z,6.45
2018-03-30T17:03:37.092Z,6.80
2018-03-30T17:06:04.743Z,8.88
2018-03-30T17:08:32.392Z,7.60
2018-03-30T17:11:00.648Z,8.63
2018-03-30T17:13:28.302Z,7.60
2018-03-30T17:15:56.699Z,6.85
2018-03-30T17:18:24.346Z,8.68
2018-03-30T17:20:51.998Z,8.50
2018-03-30T17:23:19.651Z,9.65
2018-03-30T17:25:48.073Z,8.30
2018-03-30T17:28:15.751Z,10.38
2018-03-30T17:30:44.100Z,9.30
2018-03-30T17:33:11.557Z,9.98
2018-03-30T17:35:39.844Z,9.52
2018-03-30T17:38:07.508Z,11.30
2018-03-30T17:40:35.159Z,11.18
2018-03-30T17:43:02.824Z,12.37
2018-03-30T17:45:31.743Z,14.40
2018-03-30T17:47:59.395Z,13.48
2018-03-30T17:50:27.057Z,13.55
2018-03-30T17:52:54.492Z,10.60
2018-03-30T17:55:22.151Z,11.77
2018-03-30T17:57:49.815Z,11.27
2018-03-30T18:00:18.300Z,10.85
2018-03-30T18:02:46.004Z,10.68
2018-03-30T18:05:13.688Z,10.48
2018-03-30T18:07:41.531Z,9.18
2018-03-30T18:10:09.700Z,10.90
2018-03-30T18:12:37.428Z,9.70
2018-03-30T18:15:05.342Z,9.25
2018-03-30T18:17:33.013Z,10.13
2018-03-30T18:20:00.667Z,10.60
2018-03-30T18:22:28.334Z,11.65
2018-03-30T18:24:55.776Z,11.80
2018-03-30T18:27:23.446Z,11.65
2018-03-30T18:29:53.543Z,11.00
2018-03-30T18:32:21.447Z,11.68
2018-03-30T18:34:49.132Z,12.45
2018-03-30T18:37:17.886Z,12.80
2018-03-30T18:39:45.555Z,11.35
2018-03-30T18:42:13.220Z,12.80
2018-03-30T18:44:41.302Z,12.40
2018-03-30T18:47:08.956Z,13.02
2018-03-30T18:49:36.631Z,10.43
2018-03-30T18:52:04.293Z,10.52
2018-03-30T18:54:31.953Z,9.55
2018-03-30T18:56:59.612Z,10.52
2018-03-30T18:59:27.288Z,9.80
2018-03-30T19:01:54.997Z,9.75
2018-03-30T19:04:23.583Z,11.05
2018-03-30T19:06:51.264Z,11.77
2018-03-30T19:09:18.956Z,13.70
2018-03-30T19:11:46.610Z,13.65
2018-03-30T19:14:14.256Z,16.98
2018-03-30T19:16:41.690Z,12.50
2018-03-30T19:19:09.370Z,11.10
2018-03-30T19:21:37.034Z,12.45
2018-03-30T19:24:04.718Z,11.20
2018-03-30T19:26:35.253Z,11.23
2018-03-30T19:29:02.941Z,10.43
2018-03-30T19:31:32.289Z,11.73
2018-03-30T19:33:59.954Z,11.60
2018-03-30T19:36:27.611Z,11.82
2018-03-30T19:38:55.293Z,11.43
2018-03-30T19:41:22.972Z,12.82
2018-03-30T19:43:50.646Z,11.07
2018-03-30T19:46:18.624Z,12.37
2018-03-30T19:48:47.060Z,13.07
2018-03-30T19:51:14.734Z,12.00
2018-03-30T19:53:42.424Z,12.85
2018-03-30T19:56:10.160Z,13.20
2018-03-30T19:58:37.835Z,12.73
2018-03-30T20:01:05.532Z,11.88
2018-03-30T20:03:33.987Z,12.45
2018-03-30T20:06:01.702Z,13.13
2018-03-30T20:08:29.372Z,13.55
2018-03-30T20:10:57.716Z,13.15
2018-03-30T20:13:27.241Z,13.98
2018-03-30T20:15:54.924Z,14.23
2018-03-30T20:18:22.606Z,14.85
2018-03-30T20:20:50.292Z,13.40
2018-03-30T20:23:17.990Z,14.35
2018-03-30T20:25:45.659Z,14.43
2018-03-30T20:28:13.335Z,13.88
2018-03-30T20:30:40.991Z,14.25
2018-03-30T20:33:08.659Z,15.23
2018-03-30T20:35:36.314Z,15.75
2018-03-30T20:38:03.975Z,14.23
2018-03-30T20:40:31.636Z,13.73
2018-03-30T20:42:59.308Z,13.70
2018-03-30T20:45:27.684Z,13.00
2018-03-30T20:47:58.201Z,14.05
2018-03-30T20:50:26.641Z,16.15
2018-03-30T21:35:39.666Z,16.12
2018-03-30T21:38:07.315Z,15.27
2018-03-30T21:40:35.200Z,17.98
2018-03-30T21:43:03.046Z,17.83
2018-03-30T21:45:30.700Z,18.87
2018-03-30T21:47:58.355Z,18.25
2018-03-30T21:50:26.005Z,17.08
2018-03-30T21:52:54.116Z,17.87
2018-03-30T21:55:21.766Z,18.05
2018-03-30T21:57:49.439Z,15.90
2018-03-30T22:00:17.139Z,17.05
2018-03-30T22:02:44.836Z,15.85
2018-03-30T22:05:12.501Z,15.90
2018-03-30T22:07:40.163Z,15.50
2018-03-30T22:10:07.827Z,15.43
2018-03-30T22:12:35.500Z,15.57
2018-03-30T22:15:03.171Z,15.88
2018-03-30T22:17:30.850Z,16.58
2018-03-30T22:19:58.512Z,15.85
2018-03-30T22:22:26.776Z,14.50
2018-03-30T22:24:55.404Z,15.48
2018-03-30T22:27:23.126Z,16.30
2018-03-30T22:29:50.944Z,17.45
2018-03-30T22:32:18.603Z,16.77
2018-03-30T22:34:47.287Z,16.30
2018-03-30T22:37:14.964Z,16.10
2018-03-30T22:39:43.375Z,18.33
2018-03-30T22:42:11.040Z,17.60
2018-03-30T22:44:38.730Z,17.70
2018-03-30T22:47:06.395Z,18.75
2018-03-30T22:49:34.059Z,18.17
2018-03-30T22:52:01.732Z,18.40
2018-03-30T22:54:29.911Z,19.40
2018-03-30T22:56:57.576Z,19.52
2018-03-30T22:59:25.250Z,17.87
2018-03-30T23:01:52.890Z,16.25
2018-03-30T23:04:20.588Z,18.45
2018-03-30T23:06:49.064Z,20.60
2018-03-30T23:09:16.516Z,18.40
2018-03-30T23:11:44.170Z,17.30
2018-03-30T23:14:11.827Z,17.35
2018-03-30T23:16:40.469Z,16.62
2018-03-30T23:19:08.146Z,17.35
2018-03-30T23:21:35.820Z,17.55
2018-03-30T23:24:03.239Z,16.58
2018-03-30T23:26:30.910Z,18.05
2018-03-30T23:28:58.565Z,18.35
2018-03-30T23:31:26.045Z,19.37
2018-03-30T23:33:53.703Z,17.17
2018-03-30T23:36:21.358Z,17.92
2018-03-30T23:38:49.959Z,18.33
2018-03-30T23:41:17.626Z,18.80
2018-03-30T23:43:45.303Z,18.27
2018-03-30T23:46:12.969Z,19.77
2018-03-30T23:48:40.388Z,18.25
2018-03-30T23:51:08.049Z,17.52
2018-03-30T23:53:35.758Z,20.42
2018-03-30T23:56:04.197Z,19.65
2018-03-30T23:58:32.521Z,18.67
